Time;durP1;ratioP1;P1;durP2;ratioP2;P2;SDS_P1;SDS_P2;PMS_P1;PMS_P2;Temp;Humidity;BMP_temperature;BMP_pressure;BME280_temperature;BME280_humidity;BME280_pressure;Samples;Min_cycle;Max_cycle;Signal;HPM_P1;HPM_P2
2022/10/11 00:02:15;;;;;;;7.50;6.60;;;19.60;99.90;;;;;;5128711;28;20206;-93
2022/10/11 00:04:54;;;;;;;8.33;7.23;;;19.50;99.90;;;;;;5107855;28;20263;-92
2022/10/11 00:07:27;;;;;;;8.77;6.90;;;19.40;99.90;;;;;;5121680;28;20206;-93
2022/10/11 00:10:00;;;;;;;8.47;7.03;;;19.40;99.90;;;;;;5117089;28;20216;-93
2022/10/11 00:12:32;;;;;;;7.80;6.73;;;19.40;99.90;;;;;;5119386;28;20221;-93
2022/10/11 00:15:04;;;;;;;9.50;6.90;;;19.30;99.90;;;;;;5100414;28;20697;-93
2022/10/11 00:17:38;;;;;;;7.23;6.37;;;19.20;99.90;;;;;;5117354;28;20209;-93
2022/10/11 00:20:10;;;;;;;8.93;6.63;;;19.20;99.90;;;;;;5121154;28;20225;-93
2022/10/11 00:22:42;;;;;;;7.87;7.17;;;19.30;99.90;;;;;;5116605;28;20221;-94
2022/10/11 00:25:16;;;;;;;7.63;6.83;;;19.20;99.90;;;;;;5116304;28;20214;-93
2022/10/11 00:27:48;;;;;;;8.33;6.87;;;19.30;99.90;;;;;;5116395;28;20209;-93
2022/10/11 00:30:19;;;;;;;8.73;7.23;;;19.30;99.90;;;;;;5099217;28;20217;-92
2022/10/11 00:32:51;;;;;;;11.37;7.00;;;19.40;99.90;;;;;;5115722;28;20210;-93
2022/10/11 00:35:23;;;;;;;6.50;5.90;;;19.40;99.90;;;;;;5117262;28;20206;-93
2022/10/11 00:37:56;;;;;;;8.70;6.97;;;19.30;99.90;;;;;;5116454;28;20206;-93
2022/10/11 00:40:30;;;;;;;9.00;6.83;;;19.30;99.90;;;;;;5115438;28;20237;-92
2022/10/11 00:43:01;;;;;;;8.83;6.80;;;19.20;99.90;;;;;;5114979;28;20630;-92
2022/10/11 00:46:24;;;;;;;9.13;6.33;;;19.20;99.90;;;;;;5115611;28;20202;-93
2022/10/11 00:49:01;;;;;;;8.10;6.60;;;19.10;99.90;;;;;;5115482;28;20210;-93
2022/10/11 00:51:49;;;;;;;7.40;6.53;;;19.00;99.90;;;;;;5115329;28;20202;-92
2022/10/11 00:54:23;;;;;;;7.53;6.27;;;18.90;99.90;;;;;;5115071;28;20210;-93
2022/10/11 00:57:04;;;;;;;11.23;6.77;;;18.70;99.90;;;;;;5116093;28;20202;-93
2022/10/11 00:59:42;;;;;;;7.23;6.47;;;18.50;99.90;;;;;;5098162;28;20700;-93
2022/10/11 01:02:16;;;;;;;8.23;6.53;;;18.30;99.90;;;;;;5117122;28;20217;-92
2022/10/11 01:04:47;;;;;;;6.97;6.33;;;18.20;99.90;;;;;;5097883;28;20653;-94
2022/10/11 01:07:39;;;;;;;8.13;6.90;;;18.10;99.90;;;;;;5115591;28;20297;-93
2022/10/11 01:10:11;;;;;;;7.13;6.33;;;17.90;99.90;;;;;;5115388;28;20241;-92
2022/10/11 01:12:59;;;;;;;7.73;6.93;;;17.80;99.90;;;;;;5114087;28;20206;-93
2022/10/11 01:15:36;;;;;;;8.83;6.73;;;17.70;99.90;;;;;;5098008;28;20202;-94
2022/10/11 01:18:15;;;;;;;7.47;6.77;;;17.60;99.90;;;;;;5115021;28;20212;-94
2022/10/11 01:20:56;;;;;;;7.37;6.67;;;17.50;99.90;;;;;;5081791;28;20233;-91
2022/10/11 01:24:05;;;;;;;9.23;7.00;;;17.40;99.90;;;;;;5114408;28;20210;-92
2022/10/11 01:27:10;;;;;;;13.43;7.73;;;17.30;99.90;;;;;;5115963;28;20262;-93
2022/10/11 01:29:52;;;;;;;8.70;7.20;;;17.30;99.90;;;;;;5113806;28;20245;-93
2022/10/11 01:32:33;;;;;;;11.33;7.43;;;17.20;99.90;;;;;;5116504;28;20213;-93
2022/10/11 01:35:09;;;;;;;8.27;7.40;;;17.20;99.90;;;;;;5117804;28;20206;-93
2022/10/11 01:37:44;;;;;;;11.70;9.10;;;17.10;99.90;;;;;;5120038;28;20212;-93
2022/10/11 01:40:21;;;;;;;14.63;9.80;;;17.20;99.90;;;;;;5129645;28;20252;-93
2022/10/11 01:42:54;;;;;;;15.10;11.23;;;17.10;99.90;;;;;;5122529;28;20214;-94
2022/10/11 01:45:26;;;;;;;15.87;11.67;;;17.20;99.90;;;;;;5119537;28;20206;-92
2022/10/11 01:48:09;;;;;;;13.30;10.90;;;17.20;99.90;;;;;;5119397;28;20198;-93
2022/10/11 01:50:47;;;;;;;13.47;9.43;;;17.30;99.90;;;;;;5118792;28;20214;-93
2022/10/11 01:53:40;;;;;;;15.60;9.20;;;17.30;99.90;;;;;;5097657;28;20217;-92
2022/10/11 01:56:23;;;;;;;11.33;7.33;;;17.40;99.90;;;;;;5125318;28;20202;-93
2022/10/11 01:59:16;;;;;;;7.53;4.30;;;17.40;99.90;;;;;;5108434;28;20235;-92
2022/10/11 02:01:57;;;;;;;6.80;4.10;;;17.30;99.90;;;;;;5102351;28;20238;-93
2022/10/11 02:04:34;;;;;;;5.03;2.63;;;17.20;99.90;;;;;;5117761;28;20202;-93
2022/10/11 02:07:13;;;;;;;4.60;2.37;;;17.10;99.90;;;;;;5115760;28;20220;-93
2022/10/11 02:09:50;;;;;;;5.10;2.00;;;17.00;99.90;;;;;;5114412;28;20221;-91
2022/10/11 02:12:26;;;;;;;4.47;2.10;;;16.90;99.90;;;;;;5079353;28;20218;-93
2022/10/11 02:14:59;;;;;;;7.27;2.03;;;16.80;99.90;;;;;;5115470;28;20564;-93
2022/10/11 02:17:34;;;;;;;6.90;1.80;;;16.70;99.90;;;;;;5115483;28;20207;-94
2022/10/11 02:20:12;;;;;;;4.10;1.83;;;16.60;99.90;;;;;;5115205;28;20201;-93
2022/10/11 02:22:46;;;;;;;4.73;1.83;;;16.50;99.90;;;;;;5117443;28;20281;-92
2022/10/11 02:25:22;;;;;;;5.30;1.30;;;16.40;99.90;;;;;;5120230;28;20217;-92
2022/10/11 02:27:55;;;;;;;5.10;1.57;;;16.20;99.90;;;;;;5118935;28;20654;-93
2022/10/11 02:30:27;;;;;;;6.60;1.50;;;16.10;99.90;;;;;;5118219;28;20210;-93
2022/10/11 02:33:00;;;;;;;8.70;1.47;;;15.90;99.90;;;;;;5117456;28;20210;-93
2022/10/11 02:35:40;;;;;;;6.20;1.63;;;15.80;99.90;;;;;;5100842;28;20214;-93
2022/10/11 02:38:19;;;;;;;5.30;1.40;;;15.70;99.90;;;;;;5119218;28;20210;-92
2022/10/11 02:40:56;;;;;;;6.17;1.40;;;15.50;99.90;;;;;;5119638;28;20233;-92
2022/10/11 02:43:35;;;;;;;5.00;1.30;;;15.40;99.90;;;;;;5118831;28;20308;-93
2022/10/11 02:46:08;;;;;;;8.93;1.70;;;15.30;99.90;;;;;;5119569;28;20205;-92
2022/10/11 02:48:40;;;;;;;6.37;1.33;;;15.20;99.90;;;;;;5119254;28;20202;-92
2022/10/11 02:51:16;;;;;;;8.27;1.70;;;15.10;99.90;;;;;;5118314;28;20689;-93
2022/10/11 02:53:48;;;;;;;9.40;2.13;;;14.90;99.90;;;;;;5099768;28;20206;-92
2022/10/11 02:56:19;;;;;;;14.93;2.17;;;14.90;99.90;;;;;;5119185;28;20257;-93
2022/10/11 02:58:50;;;;;;;13.73;2.03;;;14.80;99.90;;;;;;5118983;28;20202;-92
2022/10/11 03:01:22;;;;;;;9.00;2.40;;;14.70;99.90;;;;;;5119847;28;20240;-92
2022/10/11 03:03:53;;;;;;;12.23;2.83;;;14.60;99.90;;;;;;5101618;28;20202;-91
2022/10/11 03:06:27;;;;;;;12.80;2.60;;;14.50;99.90;;;;;;5120236;28;20210;-91
2022/10/11 03:08:58;;;;;;;12.10;2.43;;;14.40;99.90;;;;;;5118733;28;20206;-92
2022/10/11 03:11:30;;;;;;;13.97;2.30;;;14.30;99.90;;;;;;5118825;28;20714;-93
2022/10/11 03:14:01;;;;;;;13.07;2.53;;;14.30;99.90;;;;;;5117902;28;20216;-92
2022/10/11 03:16:32;;;;;;;12.60;2.43;;;14.30;99.90;;;;;;5102143;28;20319;-92
2022/10/11 03:19:04;;;;;;;13.47;2.50;;;14.30;99.90;;;;;;5124135;28;20286;-91
2022/10/11 03:21:37;;;;;;;11.17;2.43;;;14.30;99.90;;;;;;5135720;28;20262;-92
2022/10/11 03:24:09;;;;;;;12.50;2.57;;;14.30;99.90;;;;;;5136533;28;20233;-93
2022/10/11 03:26:41;;;;;;;10.57;2.87;;;14.40;99.90;;;;;;5132115;28;20202;-92
2022/10/11 03:29:12;;;;;;;10.00;2.17;;;14.40;99.90;;;;;;5119789;28;20229;-91
2022/10/11 03:31:44;;;;;;;12.13;2.37;;;14.40;99.90;;;;;;5117957;28;20210;-92
2022/10/11 03:34:15;;;;;;;13.80;2.67;;;14.40;99.90;;;;;;5117654;28;20210;-92
2022/10/11 03:36:49;;;;;;;10.20;2.93;;;14.50;99.90;;;;;;5117673;28;20247;-93
2022/10/11 03:39:20;;;;;;;12.03;2.93;;;14.50;99.90;;;;;;5102680;28;20225;-92
2022/10/11 03:41:51;;;;;;;11.97;2.33;;;14.40;99.90;;;;;;5118124;28;20232;-92
2022/10/11 03:44:25;;;;;;;11.80;3.00;;;14.40;99.90;;;;;;5117598;28;20209;-92
2022/10/11 03:46:56;;;;;;;10.37;2.60;;;14.40;99.90;;;;;;5118523;28;20233;-92
2022/10/11 03:49:27;;;;;;;11.63;2.40;;;14.40;99.90;;;;;;5120773;28;20202;-92
2022/10/11 03:52:00;;;;;;;7.73;2.17;;;14.50;99.90;;;;;;5118994;28;20208;-93
2022/10/11 03:54:31;;;;;;;11.00;2.80;;;14.50;99.90;;;;;;5117688;28;20206;-92
2022/10/11 03:57:03;;;;;;;12.67;2.80;;;14.50;99.90;;;;;;5117421;28;20216;-93
2022/10/11 03:59:34;;;;;;;13.67;2.63;;;14.60;99.90;;;;;;5101202;28;20548;-92
2022/10/11 04:02:06;;;;;;;10.33;2.00;;;14.50;99.90;;;;;;5119821;28;20232;-92
2022/10/11 04:04:38;;;;;;;13.97;3.30;;;14.50;99.90;;;;;;5101160;28;20869;-92
2022/10/11 04:07:11;;;;;;;9.50;2.40;;;14.50;99.90;;;;;;5117106;28;20270;-91
2022/10/11 04:09:43;;;;;;;11.40;2.73;;;14.50;99.90;;;;;;5116729;28;20214;-92
2022/10/11 04:12:14;;;;;;;8.33;2.23;;;14.50;99.90;;;;;;5115805;28;20213;-92
2022/10/11 04:14:46;;;;;;;9.07;2.27;;;14.60;99.90;;;;;;5117122;28;20198;-92
2022/10/11 04:17:17;;;;;;;15.57;2.60;;;14.60;99.90;;;;;;5099800;28;20210;-92
2022/10/11 04:19:49;;;;;;;10.10;2.40;;;14.50;99.90;;;;;;5098925;28;20634;-92
2022/10/11 04:22:23;;;;;;;14.83;2.87;;;14.50;99.90;;;;;;5098014;28;20240;-92
2022/10/11 04:24:54;;;;;;;12.07;2.70;;;14.50;99.90;;;;;;5098350;28;20221;-92
2022/10/11 04:27:27;;;;;;;12.70;2.60;;;14.60;99.90;;;;;;5115661;28;20678;-92
2022/10/11 04:29:58;;;;;;;12.57;2.80;;;14.50;99.90;;;;;;5116553;28;20288;-92
2022/10/11 04:32:29;;;;;;;8.93;2.73;;;14.50;99.90;;;;;;5115971;28;20203;-93
2022/10/11 04:35:01;;;;;;;7.13;1.77;;;14.50;99.90;;;;;;5117829;28;20210;-93
2022/10/11 04:37:36;;;;;;;9.60;2.10;;;14.60;99.90;;;;;;5098596;28;20214;-92
2022/10/11 04:40:09;;;;;;;12.33;2.50;;;14.60;99.90;;;;;;5116483;28;20214;-92
2022/10/11 04:42:40;;;;;;;12.47;2.53;;;14.60;99.90;;;;;;5098212;28;20253;-92
2022/10/11 04:45:11;;;;;;;13.97;2.53;;;14.60;99.90;;;;;;5103438;28;20198;-92
2022/10/11 04:47:43;;;;;;;6.83;2.30;;;14.60;99.90;;;;;;5123030;28;20202;-93
2022/10/11 04:50:14;;;;;;;8.43;2.40;;;14.70;99.90;;;;;;5137481;28;20210;-93
2022/10/11 04:52:47;;;;;;;10.90;2.40;;;14.80;99.90;;;;;;5133414;28;20188;-93
2022/10/11 04:55:18;;;;;;;11.07;2.00;;;14.80;99.90;;;;;;5132970;28;20662;-92
2022/10/11 04:57:50;;;;;;;8.13;2.70;;;14.70;99.90;;;;;;5125017;28;20670;-92
2022/10/11 05:00:22;;;;;;;10.80;2.70;;;14.70;99.90;;;;;;5116937;28;20214;-92
2022/10/11 05:02:54;;;;;;;10.17;1.73;;;14.70;99.90;;;;;;5098576;28;20241;-93
2022/10/11 05:05:26;;;;;;;10.53;2.17;;;14.60;99.90;;;;;;5115298;28;20548;-92
2022/10/11 05:07:59;;;;;;;7.30;2.00;;;14.70;99.90;;;;;;5116753;28;20209;-93
2022/10/11 05:10:30;;;;;;;9.33;2.13;;;14.60;99.90;;;;;;5118256;28;20573;-93
2022/10/11 05:13:01;;;;;;;10.90;2.40;;;14.60;99.90;;;;;;5116197;28;20617;-92
2022/10/11 05:15:32;;;;;;;10.37;2.43;;;14.70;99.90;;;;;;5116174;28;20209;-92
2022/10/11 05:18:03;;;;;;;9.27;2.30;;;14.70;99.90;;;;;;5116948;28;20209;-92
2022/10/11 05:20:35;;;;;;;9.60;2.07;;;14.70;99.90;;;;;;5114628;28;20563;-91
2022/10/11 05:23:08;;;;;;;9.53;2.33;;;14.60;99.90;;;;;;5113699;28;20230;-92
2022/10/11 05:25:39;;;;;;;10.73;2.07;;;14.60;99.90;;;;;;5114713;28;20287;-92
2022/10/11 05:28:10;;;;;;;12.80;2.80;;;14.60;99.90;;;;;;5115379;28;20210;-93
2022/10/11 05:30:42;;;;;;;14.60;3.00;;;14.50;99.90;;;;;;5114930;28;20631;-92
2022/10/11 05:33:13;;;;;;;11.10;2.50;;;14.50;99.90;;;;;;5113480;28;20210;-92
2022/10/11 05:35:44;;;;;;;12.03;2.53;;;14.50;99.90;;;;;;5114388;28;20205;-93
2022/10/11 05:38:17;;;;;;;8.33;2.33;;;14.50;99.90;;;;;;5114889;28;20202;-92
2022/10/11 05:40:49;;;;;;;16.77;2.60;;;14.50;99.90;;;;;;5115074;28;20206;-93
2022/10/11 05:43:20;;;;;;;12.33;2.93;;;14.30;99.90;;;;;;5096294;28;20260;-91
2022/10/11 05:45:51;;;;;;;12.23;2.57;;;14.30;99.90;;;;;;5114433;28;20202;-93
2022/10/11 05:48:22;;;;;;;13.27;2.93;;;14.20;99.90;;;;;;5114711;28;20673;-92
2022/10/11 05:50:54;;;;;;;12.03;2.67;;;14.20;99.90;;;;;;5114910;28;20210;-92
2022/10/11 05:53:28;;;;;;;11.07;2.37;;;14.30;99.90;;;;;;5113675;28;20202;-93
2022/10/11 05:56:00;;;;;;;11.60;3.00;;;14.30;99.90;;;;;;5116986;28;20206;-91
2022/10/11 05:58:32;;;;;;;16.10;2.83;;;14.30;99.90;;;;;;5119304;28;20206;-92
2022/10/11 06:01:04;;;;;;;13.37;2.97;;;14.30;99.90;;;;;;5101279;28;20224;-92
2022/10/11 06:03:34;;;;;;;12.90;2.90;;;14.20;99.90;;;;;;5118498;28;20256;-93
2022/10/11 06:06:06;;;;;;;12.70;2.87;;;14.20;99.90;;;;;;5118949;28;20210;-92
2022/10/11 06:08:39;;;;;;;11.23;2.60;;;14.10;99.90;;;;;;5119008;28;20210;-93
2022/10/11 06:11:13;;;;;;;14.97;3.43;;;14.10;99.90;;;;;;5118952;28;20202;-92
2022/10/11 06:13:44;;;;;;;10.57;2.73;;;14.10;99.90;;;;;;5117841;28;20667;-92
2022/10/11 06:16:15;;;;;;;11.40;2.70;;;14.10;99.90;;;;;;5121111;28;20217;-92
2022/10/11 06:18:47;;;;;;;14.13;2.83;;;14.10;99.90;;;;;;5118733;28;20214;-93
2022/10/11 06:21:18;;;;;;;15.60;2.77;;;14.10;99.90;;;;;;5121822;28;20285;-93
2022/10/11 06:23:53;;;;;;;15.23;2.70;;;14.20;99.90;;;;;;5125170;28;20241;-92
2022/10/11 06:26:30;;;;;;;12.60;2.27;;;14.10;99.90;;;;;;5126567;28;20198;-92
2022/10/11 06:29:01;;;;;;;10.67;3.10;;;14.00;99.90;;;;;;5102993;28;20206;-92
2022/10/11 06:31:32;;;;;;;19.83;3.30;;;14.00;99.90;;;;;;5118889;28;20202;-93
2022/10/11 06:34:03;;;;;;;15.37;3.10;;;14.00;99.90;;;;;;5118813;28;20631;-92
2022/10/11 06:36:35;;;;;;;10.80;2.37;;;14.00;99.90;;;;;;5119332;28;20589;-92
2022/10/11 06:39:09;;;;;;;10.57;2.23;;;14.00;99.90;;;;;;5085277;28;20254;-92
2022/10/11 06:41:40;;;;;;;14.53;2.63;;;14.00;99.90;;;;;;5118634;28;20289;-92
2022/10/11 06:44:12;;;;;;;16.10;3.23;;;14.00;99.90;;;;;;5119657;28;20230;-92
2022/10/11 06:46:43;;;;;;;12.73;2.70;;;14.00;99.90;;;;;;5118515;28;20202;-91
2022/10/11 06:49:14;;;;;;;10.23;2.60;;;14.00;99.90;;;;;;5118328;28;20209;-93
2022/10/11 06:51:52;;;;;;;13.23;2.87;;;13.90;99.90;;;;;;5101032;28;20218;-93
2022/10/11 06:54:25;;;;;;;8.10;2.40;;;14.00;99.90;;;;;;5117860;28;20202;-93
2022/10/11 06:56:57;;;;;;;12.70;2.87;;;14.00;99.90;;;;;;5118027;28;20213;-93
2022/10/11 06:59:28;;;;;;;12.80;2.90;;;14.00;99.90;;;;;;5117502;28;20216;-93
2022/10/11 07:01:59;;;;;;;11.63;3.17;;;14.10;99.90;;;;;;5117312;28;20209;-91
2022/10/11 07:04:32;;;;;;;13.40;3.83;;;14.20;99.90;;;;;;5117343;28;20230;-92
2022/10/11 07:07:03;;;;;;;16.23;2.73;;;14.10;99.90;;;;;;5116683;28;20208;-92
2022/10/11 07:09:36;;;;;;;13.73;2.90;;;13.90;99.90;;;;;;5117349;28;20568;-92
2022/10/11 07:12:08;;;;;;;11.80;2.70;;;13.90;99.90;;;;;;5098650;28;20210;-92
2022/10/11 07:14:40;;;;;;;14.60;2.30;;;13.80;99.90;;;;;;5117115;28;20210;-93
2022/10/11 07:17:12;;;;;;;14.53;2.87;;;13.80;99.90;;;;;;5100017;28;20214;-93
2022/10/11 07:19:43;;;;;;;11.93;2.57;;;13.80;99.90;;;;;;5117195;28;20204;-92
2022/10/11 07:22:14;;;;;;;13.63;3.00;;;13.70;99.90;;;;;;5117244;28;20216;-92
2022/10/11 07:24:48;;;;;;;17.23;3.37;;;13.70;99.90;;;;;;5118653;28;20236;-92
2022/10/11 07:27:19;;;;;;;13.47;3.00;;;13.60;99.90;;;;;;5118584;28;20208;-92
2022/10/11 07:29:51;;;;;;;12.53;3.17;;;13.60;99.90;;;;;;5117352;28;20206;-93
2022/10/11 07:32:22;;;;;;;15.30;3.03;;;13.50;99.90;;;;;;5116624;28;20208;-92
2022/10/11 07:34:54;;;;;;;13.20;2.43;;;13.40;99.90;;;;;;5117114;28;20210;-93
2022/10/11 07:37:26;;;;;;;10.10;2.50;;;13.30;99.90;;;;;;5117514;28;20206;-93
2022/10/11 07:40:00;;;;;;;16.10;2.93;;;13.30;99.90;;;;;;5099772;28;20207;-92
2022/10/11 07:42:32;;;;;;;11.73;2.53;;;13.40;99.90;;;;;;5116424;28;20209;-92
2022/10/11 07:45:04;;;;;;;9.30;2.87;;;13.40;99.90;;;;;;5118742;28;20206;-92
2022/10/11 07:47:35;;;;;;;9.40;2.47;;;13.50;99.90;;;;;;5116097;28;20638;-92
2022/10/11 07:50:07;;;;;;;13.80;3.13;;;13.50;99.90;;;;;;5116499;28;20210;-92
2022/10/11 07:52:39;;;;;;;12.57;3.03;;;13.50;99.90;;;;;;5115668;28;20207;-92
2022/10/11 07:55:13;;;;;;;12.50;2.90;;;13.50;99.90;;;;;;5116503;28;20710;-92
2022/10/11 07:57:44;;;;;;;14.87;2.93;;;13.60;99.90;;;;;;5116524;28;20213;-92
2022/10/11 08:00:16;;;;;;;10.53;2.53;;;13.60;99.90;;;;;;5117448;28;20199;-93
2022/10/11 08:02:47;;;;;;;10.60;2.40;;;13.60;99.90;;;;;;5115587;28;20209;-93
2022/10/11 08:05:18;;;;;;;8.97;2.40;;;13.70;99.90;;;;;;5117607;28;20238;-92
2022/10/11 08:07:49;;;;;;;10.93;3.30;;;13.70;99.90;;;;;;5116330;28;20198;-92
2022/10/11 08:10:22;;;;;;;9.93;2.40;;;13.70;99.90;;;;;;5116185;28;20653;-92
2022/10/11 08:12:54;;;;;;;12.23;2.43;;;13.60;99.90;;;;;;5116230;28;20198;-92
2022/10/11 08:15:31;;;;;;;10.63;2.63;;;13.50;99.90;;;;;;5116469;28;20327;-92
2022/10/11 08:18:02;;;;;;;13.33;3.40;;;13.50;99.90;;;;;;5116350;28;20281;-93
2022/10/11 08:20:33;;;;;;;11.80;2.60;;;13.50;99.90;;;;;;5115527;28;20210;-91
2022/10/11 08:23:05;;;;;;;11.83;3.00;;;13.50;99.90;;;;;;5098092;28;20225;-93
2022/10/11 08:25:41;;;;;;;18.43;2.97;;;13.50;99.90;;;;;;5098276;28;20211;-92
2022/10/11 08:28:15;;;;;;;9.20;2.60;;;13.40;99.90;;;;;;5097908;28;20673;-93
2022/10/11 08:30:50;;;;;;;14.07;2.47;;;13.50;99.90;;;;;;5116056;28;20206;-92
2022/10/11 08:33:23;;;;;;;11.93;2.97;;;13.50;99.90;;;;;;5115589;28;20197;-93
2022/10/11 08:35:56;;;;;;;11.93;2.77;;;13.50;99.90;;;;;;5115934;28;20212;-93
2022/10/11 08:38:27;;;;;;;11.47;2.30;;;13.30;99.90;;;;;;5116723;28;20214;-92
2022/10/11 08:41:03;;;;;;;10.03;2.50;;;13.20;99.90;;;;;;5116245;28;20206;-92
2022/10/11 08:43:44;;;;;;;9.30;2.67;;;13.20;99.90;;;;;;5122941;28;20224;-91
2022/10/11 08:46:17;;;;;;;12.23;2.37;;;13.20;99.90;;;;;;5121813;28;20208;-91
2022/10/11 08:48:50;;;;;;;10.27;2.37;;;13.10;99.90;;;;;;5124050;28;20563;-92
2022/10/11 08:51:26;;;;;;;13.83;2.67;;;13.10;99.90;;;;;;5117543;28;20210;-92
2022/10/11 08:54:01;;;;;;;8.90;2.40;;;13.00;99.90;;;;;;5117342;28;20245;-93
2022/10/11 08:56:40;;;;;;;10.43;2.70;;;12.90;99.90;;;;;;5123678;28;20198;-91
2022/10/11 08:59:25;;;;;;;7.90;1.93;;;12.90;99.90;;;;;;5134237;28;20189;-90
2022/10/11 09:02:05;;;;;;;14.77;2.37;;;12.80;99.90;;;;;;5111588;28;20206;-92
2022/10/11 09:04:36;;;;;;;12.03;2.90;;;12.80;99.90;;;;;;5117308;28;20225;-93
2022/10/11 09:07:21;;;;;;;11.27;2.57;;;12.80;99.90;;;;;;5116392;28;20237;-92
2022/10/11 09:10:08;;;;;;;9.73;1.90;;;12.80;99.90;;;;;;5120026;28;20218;-93
2022/10/11 09:12:55;;;;;;;9.53;2.43;;;12.80;99.90;;;;;;5097340;28;20220;-91
2022/10/11 09:15:31;;;;;;;9.70;2.13;;;12.70;99.90;;;;;;5118073;28;20210;-93
2022/10/11 09:18:23;;;;;;;12.43;2.40;;;12.60;99.90;;;;;;5099693;28;20206;-93
2022/10/11 09:21:03;;;;;;;11.00;2.17;;;12.60;99.90;;;;;;4765817;28;9999924;-93
2022/10/11 09:23:47;;;;;;;13.57;2.83;;;12.60;99.90;;;;;;5096811;28;20205;-93
2022/10/11 09:26:27;;;;;;;8.73;1.57;;;12.50;99.90;;;;;;5115020;28;20574;-93
2022/10/11 09:29:10;;;;;;;11.37;2.40;;;12.50;99.90;;;;;;5116150;28;20202;-92
2022/10/11 09:31:43;;;;;;;16.90;2.77;;;12.40;99.90;;;;;;5114169;28;20255;-94
2022/10/11 09:34:15;;;;;;;14.10;3.07;;;12.30;99.90;;;;;;5114831;28;20650;-92
2022/10/11 09:36:53;;;;;;;14.63;2.93;;;12.20;99.90;;;;;;5114701;28;20206;-93
2022/10/11 09:39:31;;;;;;;10.63;3.00;;;12.20;99.90;;;;;;5115941;28;20578;-92
2022/10/11 09:42:04;;;;;;;9.83;2.30;;;12.10;99.90;;;;;;5097133;28;20991;-92
2022/10/11 09:44:40;;;;;;;11.10;2.60;;;12.10;99.90;;;;;;5116187;28;20233;-93
2022/10/11 09:47:16;;;;;;;11.00;2.77;;;12.00;99.90;;;;;;5129834;28;20205;-93
2022/10/11 09:49:53;;;;;;;8.80;2.57;;;12.10;99.90;;;;;;5136392;28;20226;-92
2022/10/11 09:52:25;;;;;;;10.33;2.80;;;12.10;99.90;;;;;;5134539;28;20201;-93
2022/10/11 09:54:59;;;;;;;11.90;2.90;;;12.10;99.90;;;;;;5131059;28;20260;-91
2022/10/11 09:57:32;;;;;;;9.83;2.57;;;12.00;99.90;;;;;;5117051;28;20224;-91
2022/10/11 10:00:08;;;;;;;11.67;2.60;;;11.90;99.90;;;;;;5098425;28;20213;-91
2022/10/11 10:02:45;;;;;;;12.93;2.57;;;12.00;99.90;;;;;;5113887;28;20208;-93
2022/10/11 10:05:21;;;;;;;12.10;2.73;;;11.90;99.90;;;;;;5114650;28;20269;-92
2022/10/11 10:08:21;;;;;;;15.90;2.63;;;11.90;99.90;;;;;;5115466;28;20202;-92
2022/10/11 10:11:01;;;;;;;14.67;2.50;;;11.80;99.90;;;;;;5114769;28;20217;-92
2022/10/11 10:13:42;;;;;;;16.40;2.73;;;11.70;99.90;;;;;;5114290;28;20569;-93
2022/10/11 10:16:30;;;;;;;12.90;2.63;;;11.70;99.90;;;;;;5114971;28;20205;-93
2022/10/11 10:19:04;;;;;;;11.70;3.37;;;11.60;99.90;;;;;;5116121;28;20206;-93
2022/10/11 10:21:38;;;;;;;14.20;2.73;;;11.60;99.90;;;;;;5116832;28;20198;-92
2022/10/11 10:24:18;;;;;;;8.83;2.30;;;11.60;99.90;;;;;;5117090;28;20219;-92
2022/10/11 10:27:09;;;;;;;12.80;2.67;;;11.60;99.90;;;;;;5116724;28;20212;-92
2022/10/11 10:29:42;;;;;;;14.93;2.77;;;11.50;99.90;;;;;;5097656;28;20297;-92
2022/10/11 10:32:22;;;;;;;14.83;3.00;;;11.50;99.90;;;;;;5117132;28;20217;-92
2022/10/11 10:34:59;;;;;;;14.10;2.87;;;11.60;99.90;;;;;;5115063;28;20210;-91
2022/10/11 10:37:37;;;;;;;12.53;3.00;;;11.60;99.90;;;;;;5115049;28;20265;-92
2022/10/11 10:40:15;;;;;;;16.67;2.97;;;11.60;99.90;;;;;;5114971;28;20217;-91
2022/10/11 10:42:46;;;;;;;12.87;2.77;;;11.50;99.90;;;;;;5115719;28;20250;-91
2022/10/11 10:45:19;;;;;;;12.50;2.90;;;11.60;99.90;;;;;;5101011;28;20236;-92
2022/10/11 10:48:13;;;;;;;14.67;3.23;;;11.50;99.90;;;;;;5118921;28;20229;-91
2022/10/11 10:50:51;;;;;;;11.10;2.90;;;11.50;99.90;;;;;;5128812;28;20209;-91
2022/10/11 10:53:30;;;;;;;11.53;3.13;;;11.50;99.90;;;;;;5122291;28;20183;-92
2022/10/11 10:56:08;;;;;;;11.77;2.93;;;11.40;99.90;;;;;;5140322;28;20187;-93
2022/10/11 10:59:03;;;;;;;10.33;2.67;;;11.40;99.90;;;;;;5139454;28;20241;-92
2022/10/11 11:01:41;;;;;;;12.50;2.60;;;11.30;99.90;;;;;;5121364;28;20355;-92
2022/10/11 11:04:25;;;;;;;10.50;2.33;;;11.30;99.90;;;;;;5120798;28;20194;-92
2022/10/11 11:07:00;;;;;;;12.07;2.67;;;11.20;99.90;;;;;;5122160;28;20258;-92
2022/10/11 11:09:42;;;;;;;11.60;3.27;;;11.20;99.90;;;;;;5138903;28;20202;-92
2022/10/11 11:12:26;;;;;;;12.17;3.17;;;11.20;99.90;;;;;;5135891;28;20301;-92
2022/10/11 11:15:07;;;;;;;16.10;3.00;;;11.30;99.90;;;;;;5127642;28;20205;-92
2022/10/11 11:17:54;;;;;;;16.60;3.47;;;11.30;99.90;;;;;;5118361;28;20721;-92
2022/10/11 11:20:56;;;;;;;12.27;2.60;;;11.30;99.90;;;;;;5116776;28;20709;-92
2022/10/11 11:23:34;;;;;;;10.70;2.40;;;11.20;99.90;;;;;;5117219;28;20229;-92
2022/10/11 11:26:12;;;;;;;11.57;2.80;;;11.30;99.90;;;;;;5099089;28;20237;-93
2022/10/11 11:28:58;;;;;;;12.60;2.37;;;11.30;99.90;;;;;;5117616;28;20557;-93
2022/10/11 11:31:53;;;;;;;10.07;2.70;;;11.30;99.90;;;;;;5117805;28;20199;-93
2022/10/11 11:34:27;;;;;;;14.83;3.30;;;11.30;99.90;;;;;;5117429;28;20220;-92
2022/10/11 11:37:05;;;;;;;8.73;2.43;;;11.30;99.90;;;;;;5116959;28;20214;-92
2022/10/11 11:39:43;;;;;;;15.47;2.80;;;11.20;99.90;;;;;;5116388;28;20210;-92
2022/10/11 11:42:22;;;;;;;17.53;3.80;;;11.20;99.90;;;;;;5116199;28;20240;-92
2022/10/11 11:44:54;;;;;;;16.37;2.83;;;11.30;99.90;;;;;;5117049;28;20209;-92
2022/10/11 11:47:30;;;;;;;13.97;3.30;;;11.30;99.90;;;;;;5117012;28;20205;-92
2022/10/11 11:50:06;;;;;;;15.13;3.10;;;11.30;99.90;;;;;;5117240;28;20202;-92
2022/10/11 11:52:45;;;;;;;12.83;2.87;;;11.20;99.90;;;;;;5117674;28;20205;-92
2022/10/11 11:55:22;;;;;;;17.50;2.80;;;11.20;99.90;;;;;;5116853;28;20206;-92
2022/10/11 11:58:04;;;;;;;15.47;2.83;;;11.20;99.90;;;;;;5119296;28;20271;-92
2022/10/11 12:00:42;;;;;;;14.40;2.83;;;11.10;99.90;;;;;;5117391;28;20198;-91
2022/10/11 12:03:25;;;;;;;19.60;3.30;;;11.10;99.90;;;;;;5120222;28;20575;-91
2022/10/11 12:06:29;;;;;;;15.13;2.97;;;11.00;99.90;;;;;;5117879;28;20230;-92
2022/10/11 12:09:23;;;;;;;15.57;3.00;;;11.00;99.90;;;;;;5114024;28;20293;-92
2022/10/11 12:11:57;;;;;;;14.80;2.90;;;10.90;99.90;;;;;;5117505;28;20210;-91
2022/10/11 12:14:37;;;;;;;14.27;2.80;;;10.90;99.90;;;;;;5116843;28;20209;-91
2022/10/11 12:17:14;;;;;;;12.67;3.07;;;10.80;99.90;;;;;;5098773;28;20206;-91
2022/10/11 12:20:05;;;;;;;14.40;2.57;;;10.80;99.90;;;;;;5116424;28;20213;-92
2022/10/11 12:22:57;;;;;;;13.83;2.57;;;10.80;99.90;;;;;;5116155;28;20218;-93
2022/10/11 12:26:07;;;;;;;14.37;2.97;;;10.70;99.90;;;;;;5099493;28;20565;-91
2022/10/11 12:29:35;;;;;;;17.47;3.10;;;10.60;99.90;;;;;;5098488;28;20221;-93
2022/10/11 12:33:02;;;;;;;18.50;3.43;;;10.50;99.90;;;;;;5115639;28;20217;-92
2022/10/11 12:35:51;;;;;;;11.90;2.57;;;10.50;99.90;;;;;;5116211;28;20206;-92
2022/10/11 12:38:25;;;;;;;11.73;2.63;;;10.50;99.90;;;;;;5115508;28;20565;-92
2022/10/11 12:41:01;;;;;;;11.73;3.00;;;10.50;99.90;;;;;;5115951;28;20209;-92
2022/10/11 12:43:36;;;;;;;11.27;3.17;;;10.50;99.90;;;;;;5097393;28;20206;-92
2022/10/11 12:46:40;;;;;;;10.83;2.50;;;10.50;99.90;;;;;;5115834;28;20262;-91
2022/10/11 12:49:31;;;;;;;12.23;2.90;;;10.50;99.90;;;;;;5097981;28;20210;-92
2022/10/11 12:52:03;;;;;;;11.57;2.43;;;10.40;99.90;;;;;;5098165;28;20274;-91
2022/10/11 12:55:07;;;;;;;12.50;3.13;;;10.30;99.90;;;;;;5115720;28;20216;-92
2022/10/11 12:58:07;;;;;;;10.93;2.40;;;10.30;99.90;;;;;;5088468;28;20205;-91
2022/10/11 13:00:45;;;;;;;13.17;2.83;;;10.30;99.90;;;;;;5097878;28;20205;-92
2022/10/11 13:03:36;;;;;;;15.20;2.40;;;10.20;99.90;;;;;;5114452;28;20209;-92
2022/10/11 13:06:15;;;;;;;15.57;2.53;;;10.10;99.90;;;;;;5114636;28;20230;-92
2022/10/11 13:08:53;;;;;;;18.20;3.23;;;10.10;99.90;;;;;;5115119;28;20209;-93
2022/10/11 13:11:29;;;;;;;16.40;3.07;;;10.10;99.90;;;;;;5115218;28;20666;-92
2022/10/11 13:14:09;;;;;;;15.90;2.77;;;10.00;99.90;;;;;;5114541;28;20228;-92
2022/10/11 13:16:57;;;;;;;12.17;2.60;;;10.00;99.90;;;;;;5115280;28;20581;-93
2022/10/11 13:19:29;;;;;;;19.23;2.40;;;10.00;99.90;;;;;;5115317;28;20206;-91
2022/10/11 13:22:02;;;;;;;14.63;2.87;;;10.00;99.90;;;;;;5120823;28;20240;-92
2022/10/11 13:24:41;;;;;;;14.07;2.77;;;9.90;99.90;;;;;;5119211;28;20208;-92
2022/10/11 13:27:20;;;;;;;10.70;2.97;;;9.90;99.90;;;;;;5115488;28;21003;-91
2022/10/11 13:29:58;;;;;;;11.83;2.83;;;9.80;99.90;;;;;;5098700;28;20210;-91